sensor_id;sensor_type;location;lat;lon;timestamp;pressure;altitude;pressure_sealevel;temperature;humidity
61478;BME280;47345;52.334;10.392;2023-03-15T00:01:53;100145.30;;;1.60;78.71
61478;BME280;47345;52.334;10.392;2023-03-15T00:04:24;100151.19;;;1.58;78.63
61478;BME280;47345;52.334;10.392;2023-03-15T00:06:55;100147.83;;;1.56;78.82
61478;BME280;47345;52.334;10.392;2023-03-15T00:09:25;100150.42;;;1.55;78.86
61478;BME280;47345;52.334;10.392;2023-03-15T00:11:56;100156.59;;;1.53;78.93
61478;BME280;47345;52.334;10.392;2023-03-15T00:14:26;100157.69;;;1.51;78.95
61478;BME280;47345;52.334;10.392;2023-03-15T00:16:56;100157.45;;;1.50;79.12
61478;BME280;47345;52.334;10.392;2023-03-15T00:19:27;100159.70;;;1.49;79.36
61478;BME280;47345;52.334;10.392;2023-03-15T00:21:58;100160.17;;;1.46;79.21
61478;BME280;47345;52.334;10.392;2023-03-15T00:24:29;100168.38;;;1.45;79.30
61478;BME280;47345;52.334;10.392;2023-03-15T00:26:59;100168.04;;;1.43;79.24
61478;BME280;47345;52.334;10.392;2023-03-15T00:29:29;100176.98;;;1.42;79.14
61478;BME280;47345;52.334;10.392;2023-03-15T00:32:00;100178.58;;;1.40;79.46
61478;BME280;47345;52.334;10.392;2023-03-15T00:34:32;100172.49;;;1.39;79.24
61478;BME280;47345;52.334;10.392;2023-03-15T00:37:02;100176.77;;;1.37;79.58
61478;BME280;47345;52.334;10.392;2023-03-15T00:39:33;100180.77;;;1.37;79.67
61478;BME280;47345;52.334;10.392;2023-03-15T00:42:06;100187.70;;;1.36;79.77
61478;BME280;47345;52.334;10.392;2023-03-15T00:44:37;100187.97;;;1.35;79.79
61478;BME280;47345;52.334;10.392;2023-03-15T00:47:08;100188.06;;;1.34;79.76
61478;BME280;47345;52.334;10.392;2023-03-15T00:49:39;100191.20;;;1.33;79.65
61478;BME280;47345;52.334;10.392;2023-03-15T00:52:10;100193.48;;;1.32;79.73
61478;BME280;47345;52.334;10.392;2023-03-15T00:54:40;100192.77;;;1.32;80.10
61478;BME280;47345;52.334;10.392;2023-03-15T00:57:11;100199.72;;;1.32;79.68
61478;BME280;47345;52.334;10.392;2023-03-15T00:59:42;100206.28;;;1.31;79.72
61478;BME280;47345;52.334;10.392;2023-03-15T01:02:13;100200.05;;;1.31;79.91
61478;BME280;47345;52.334;10.392;2023-03-15T01:04:43;100205.86;;;1.30;79.79
61478;BME280;47345;52.334;10.392;2023-03-15T01:07:14;100211.92;;;1.29;79.96
61478;BME280;47345;52.334;10.392;2023-03-15T01:09:45;100208.13;;;1.29;79.92
61478;BME280;47345;52.334;10.392;2023-03-15T01:12:16;100210.45;;;1.30;80.30
61478;BME280;47345;52.334;10.392;2023-03-15T01:14:47;100214.45;;;1.29;79.91
61478;BME280;47345;52.334;10.392;2023-03-15T01:17:17;100213.20;;;1.27;79.97
61478;BME280;47345;52.334;10.392;2023-03-15T01:19:48;100216.05;;;1.27;80.09
61478;BME280;47345;52.334;10.392;2023-03-15T01:22:19;100214.24;;;1.28;80.06
61478;BME280;47345;52.334;10.392;2023-03-15T01:24:50;100217.00;;;1.27;79.87
61478;BME280;47345;52.334;10.392;2023-03-15T01:27:20;100220.46;;;1.26;79.96
61478;BME280;47345;52.334;10.392;2023-03-15T01:29:51;100220.55;;;1.25;79.93
61478;BME280;47345;52.334;10.392;2023-03-15T01:32:22;100220.87;;;1.26;80.12
61478;BME280;47345;52.334;10.392;2023-03-15T01:34:52;100218.52;;;1.26;79.94
61478;BME280;47345;52.334;10.392;2023-03-15T01:37:23;100217.80;;;1.26;80.05
61478;BME280;47345;52.334;10.392;2023-03-15T01:39:53;100222.88;;;1.29;80.10
61478;BME280;47345;52.334;10.392;2023-03-15T01:42:24;100224.23;;;1.32;80.00
61478;BME280;47345;52.334;10.392;2023-03-15T01:44:56;100224.23;;;1.35;80.00
61478;BME280;47345;52.334;10.392;2023-03-15T01:47:28;100223.44;;;1.40;80.17
61478;BME280;47345;52.334;10.392;2023-03-15T01:50:03;100226.70;;;1.44;79.86
61478;BME280;47345;52.334;10.392;2023-03-15T01:52:38;100222.02;;;1.50;80.10
61478;BME280;47345;52.334;10.392;2023-03-15T01:55:13;100224.73;;;1.55;80.22
61478;BME280;47345;52.334;10.392;2023-03-15T01:57:47;100221.05;;;1.61;80.40
61478;BME280;47345;52.334;10.392;2023-03-15T02:00:20;100225.61;;;1.65;80.00
61478;BME280;47345;52.334;10.392;2023-03-15T02:02:53;100226.10;;;1.69;79.77
61478;BME280;47345;52.334;10.392;2023-03-15T02:05:27;100226.95;;;1.73;79.80
61478;BME280;47345;52.334;10.392;2023-03-15T02:08:01;100225.16;;;1.76;79.66
61478;BME280;47345;52.334;10.392;2023-03-15T02:10:36;100225.73;;;1.80;79.58
61478;BME280;47345;52.334;10.392;2023-03-15T02:13:08;100225.38;;;1.83;79.55
61478;BME280;47345;52.334;10.392;2023-03-15T02:15:40;100226.27;;;1.87;79.52
61478;BME280;47345;52.334;10.392;2023-03-15T02:18:15;100227.54;;;1.91;79.65
61478;BME280;47345;52.334;10.392;2023-03-15T02:20:50;100227.01;;;1.95;79.70
61478;BME280;47345;52.334;10.392;2023-03-15T02:23:22;100231.88;;;2.00;79.55
61478;BME280;47345;52.334;10.392;2023-03-15T02:26:01;100242.69;;;2.03;79.54
61478;BME280;47345;52.334;10.392;2023-03-15T02:28:36;100238.08;;;2.06;79.54
61478;BME280;47345;52.334;10.392;2023-03-15T02:31:07;100241.90;;;2.11;79.36
61478;BME280;47345;52.334;10.392;2023-03-15T02:33:41;100243.39;;;2.13;79.57
61478;BME280;47345;52.334;10.392;2023-03-15T02:36:17;100243.90;;;2.15;79.64
61478;BME280;47345;52.334;10.392;2023-03-15T02:38:50;100247.78;;;2.18;79.37
61478;BME280;47345;52.334;10.392;2023-03-15T02:41:25;100242.77;;;2.19;79.53
61478;BME280;47345;52.334;10.392;2023-03-15T02:44:00;100243.38;;;2.22;79.45
61478;BME280;47345;52.334;10.392;2023-03-15T02:46:32;100244.73;;;2.25;79.42
61478;BME280;47345;52.334;10.392;2023-03-15T02:49:03;100248.42;;;2.27;79.43
61478;BME280;47345;52.334;10.392;2023-03-15T02:51:34;100249.69;;;2.29;79.01
61478;BME280;47345;52.334;10.392;2023-03-15T02:54:05;100252.27;;;2.30;78.37
61478;BME280;47345;52.334;10.392;2023-03-15T02:56:35;100253.39;;;2.31;78.47
61478;BME280;47345;52.334;10.392;2023-03-15T02:59:06;100255.81;;;2.32;78.51
61478;BME280;47345;52.334;10.392;2023-03-15T03:01:36;100264.35;;;2.33;78.76
61478;BME280;47345;52.334;10.392;2023-03-15T03:04:07;100268.14;;;2.34;78.48
61478;BME280;47345;52.334;10.392;2023-03-15T03:06:37;100270.13;;;2.34;78.40
61478;BME280;47345;52.334;10.392;2023-03-15T03:09:07;100275.54;;;2.34;78.52
61478;BME280;47345;52.334;10.392;2023-03-15T03:11:38;100276.95;;;2.35;78.52
61478;BME280;47345;52.334;10.392;2023-03-15T03:14:08;100280.66;;;2.35;78.66
61478;BME280;47345;52.334;10.392;2023-03-15T03:16:42;100282.11;;;2.35;78.45
61478;BME280;47345;52.334;10.392;2023-03-15T03:19:12;100284.81;;;2.35;78.67
61478;BME280;47345;52.334;10.392;2023-03-15T03:21:43;100285.31;;;2.35;78.14
61478;BME280;47345;52.334;10.392;2023-03-15T03:24:13;100289.77;;;2.36;78.25
61478;BME280;47345;52.334;10.392;2023-03-15T03:26:44;100294.86;;;2.35;78.20
61478;BME280;47345;52.334;10.392;2023-03-15T03:29:15;100299.15;;;2.35;77.90
61478;BME280;47345;52.334;10.392;2023-03-15T03:31:45;100299.39;;;2.35;77.86
61478;BME280;47345;52.334;10.392;2023-03-15T03:34:16;100301.58;;;2.34;77.76
61478;BME280;47345;52.334;10.392;2023-03-15T03:36:47;100305.93;;;2.34;78.07
61478;BME280;47345;52.334;10.392;2023-03-15T03:39:18;100311.93;;;2.34;77.80
61478;BME280;47345;52.334;10.392;2023-03-15T03:41:48;100310.31;;;2.32;77.74
61478;BME280;47345;52.334;10.392;2023-03-15T03:44:19;100317.55;;;2.30;77.76
61478;BME280;47345;52.334;10.392;2023-03-15T03:46:49;100322.67;;;2.27;77.80
61478;BME280;47345;52.334;10.392;2023-03-15T03:49:19;100328.14;;;2.25;77.47
61478;BME280;47345;52.334;10.392;2023-03-15T03:51:49;100325.33;;;2.23;77.69
61478;BME280;47345;52.334;10.392;2023-03-15T03:54:20;100324.20;;;2.22;77.78
61478;BME280;47345;52.334;10.392;2023-03-15T03:56:51;100327.80;;;2.20;77.56
61478;BME280;47345;52.334;10.392;2023-03-15T03:59:21;100334.81;;;2.18;77.80
61478;BME280;47345;52.334;10.392;2023-03-15T04:01:52;100339.23;;;2.17;78.08
61478;BME280;47345;52.334;10.392;2023-03-15T04:04:22;100346.47;;;2.15;77.76
61478;BME280;47345;52.334;10.392;2023-03-15T04:06:54;100347.92;;;2.14;78.12
61478;BME280;47345;52.334;10.392;2023-03-15T04:09:24;100353.54;;;2.11;78.06
61478;BME280;47345;52.334;10.392;2023-03-15T04:11:55;100352.09;;;2.10;78.20
61478;BME280;47345;52.334;10.392;2023-03-15T04:14:26;100353.82;;;2.09;78.28
61478;BME280;47345;52.334;10.392;2023-03-15T04:16:57;100363.11;;;2.08;78.53
61478;BME280;47345;52.334;10.392;2023-03-15T04:19:27;100362.02;;;2.06;78.42
61478;BME280;47345;52.334;10.392;2023-03-15T04:21:57;100368.62;;;2.03;78.61
61478;BME280;47345;52.334;10.392;2023-03-15T04:24:35;100370.32;;;1.99;78.82
61478;BME280;47345;52.334;10.392;2023-03-15T04:27:08;100373.17;;;1.97;78.95
61478;BME280;47345;52.334;10.392;2023-03-15T04:29:42;100372.17;;;1.94;79.35
61478;BME280;47345;52.334;10.392;2023-03-15T04:32:14;100377.13;;;1.92;79.36
61478;BME280;47345;52.334;10.392;2023-03-15T04:34:45;100383.48;;;1.89;79.30
61478;BME280;47345;52.334;10.392;2023-03-15T04:37:19;100388.97;;;1.87;80.04
61478;BME280;47345;52.334;10.392;2023-03-15T04:39:49;100391.24;;;1.86;80.15
61478;BME280;47345;52.334;10.392;2023-03-15T04:42:20;100391.38;;;1.84;80.13
61478;BME280;47345;52.334;10.392;2023-03-15T04:44:54;100396.33;;;1.85;80.54
61478;BME280;47345;52.334;10.392;2023-03-15T04:47:24;100398.14;;;1.87;80.87
61478;BME280;47345;52.334;10.392;2023-03-15T04:49:55;100402.77;;;1.89;80.89
61478;BME280;47345;52.334;10.392;2023-03-15T04:52:26;100401.44;;;1.91;81.11
61478;BME280;47345;52.334;10.392;2023-03-15T04:54:57;100406.79;;;1.96;81.05
61478;BME280;47345;52.334;10.392;2023-03-15T04:57:28;100410.19;;;1.99;81.37
61478;BME280;47345;52.334;10.392;2023-03-15T04:59:58;100413.20;;;2.03;81.67
61478;BME280;47345;52.334;10.392;2023-03-15T05:02:29;100415.27;;;2.08;81.81
61478;BME280;47345;52.334;10.392;2023-03-15T05:04:59;100421.85;;;2.12;82.12
61478;BME280;47345;52.334;10.392;2023-03-15T05:07:30;100420.07;;;2.15;81.94
61478;BME280;47345;52.334;10.392;2023-03-15T05:10:00;100426.23;;;2.18;81.86
61478;BME280;47345;52.334;10.392;2023-03-15T05:12:31;100433.90;;;2.20;81.85
61478;BME280;47345;52.334;10.392;2023-03-15T05:15:03;100440.81;;;2.23;81.94
61478;BME280;47345;52.334;10.392;2023-03-15T05:17:33;100447.29;;;2.25;81.92
61478;BME280;47345;52.334;10.392;2023-03-15T05:20:06;100446.13;;;2.26;82.02
61478;BME280;47345;52.334;10.392;2023-03-15T05:22:40;100452.67;;;2.27;82.18
61478;BME280;47345;52.334;10.392;2023-03-15T05:25:11;100456.02;;;2.28;82.06
61478;BME280;47345;52.334;10.392;2023-03-15T05:27:43;100461.48;;;2.29;81.96
61478;BME280;47345;52.334;10.392;2023-03-15T05:30:15;100461.81;;;2.31;82.40
61478;BME280;47345;52.334;10.392;2023-03-15T05:32:46;100465.95;;;2.32;82.45
61478;BME280;47345;52.334;10.392;2023-03-15T05:35:17;100473.84;;;2.34;82.18
61478;BME280;47345;52.334;10.392;2023-03-15T05:37:47;100474.25;;;2.36;82.22
61478;BME280;47345;52.334;10.392;2023-03-15T05:40:18;100470.73;;;2.35;82.41
61478;BME280;47345;52.334;10.392;2023-03-15T05:42:48;100480.46;;;2.36;82.56
61478;BME280;47345;52.334;10.392;2023-03-15T05:45:18;100484.08;;;2.36;82.45
61478;BME280;47345;52.334;10.392;2023-03-15T05:47:49;100491.52;;;2.38;82.72
61478;BME280;47345;52.334;10.392;2023-03-15T05:50:19;100498.09;;;2.39;82.75
61478;BME280;47345;52.334;10.392;2023-03-15T05:52:52;100504.85;;;2.40;82.89
61478;BME280;47345;52.334;10.392;2023-03-15T05:55:23;100506.54;;;2.40;82.77
61478;BME280;47345;52.334;10.392;2023-03-15T05:57:53;100510.84;;;2.43;82.90
61478;BME280;47345;52.334;10.392;2023-03-15T06:00:23;100520.20;;;2.44;83.11
61478;BME280;47345;52.334;10.392;2023-03-15T06:02:54;100524.42;;;2.45;82.95
61478;BME280;47345;52.334;10.392;2023-03-15T06:05:25;100531.25;;;2.47;83.04
61478;BME280;47345;52.334;10.392;2023-03-15T06:07:55;100535.31;;;2.48;83.23
61478;BME280;47345;52.334;10.392;2023-03-15T06:10:26;100539.39;;;2.48;83.11
61478;BME280;47345;52.334;10.392;2023-03-15T06:12:56;100546.71;;;2.48;83.03
61478;BME280;47345;52.334;10.392;2023-03-15T06:15:27;100550.20;;;2.50;82.80
61478;BME280;47345;52.334;10.392;2023-03-15T06:17:58;100554.16;;;2.51;82.88
61478;BME280;47345;52.334;10.392;2023-03-15T06:20:29;100559.31;;;2.54;83.46
61478;BME280;47345;52.334;10.392;2023-03-15T06:23:00;100564.52;;;2.56;83.67
61478;BME280;47345;52.334;10.392;2023-03-15T06:25:31;100566.56;;;2.57;83.16
61478;BME280;47345;52.334;10.392;2023-03-15T06:28:01;100569.44;;;2.59;83.58
61478;BME280;47345;52.334;10.392;2023-03-15T06:30:31;100574.62;;;2.61;83.67
61478;BME280;47345;52.334;10.392;2023-03-15T06:33:02;100581.02;;;2.63;83.27
61478;BME280;47345;52.334;10.392;2023-03-15T06:35:33;100582.48;;;2.67;83.54
61478;BME280;47345;52.334;10.392;2023-03-15T06:38:04;100589.80;;;2.69;83.46
61478;BME280;47345;52.334;10.392;2023-03-15T06:40:34;100591.41;;;2.73;83.46
61478;BME280;47345;52.334;10.392;2023-03-15T06:43:05;100592.63;;;2.77;83.75
61478;BME280;47345;52.334;10.392;2023-03-15T06:45:36;100595.52;;;2.82;83.44
61478;BME280;47345;52.334;10.392;2023-03-15T06:48:07;100604.40;;;2.87;83.75
61478;BME280;47345;52.334;10.392;2023-03-15T06:50:37;100603.92;;;2.91;83.49
61478;BME280;47345;52.334;10.392;2023-03-15T06:53:16;100610.48;;;2.96;83.40
61478;BME280;47345;52.334;10.392;2023-03-15T06:55:47;100611.24;;;3.01;83.24
61478;BME280;47345;52.334;10.392;2023-03-15T06:58:19;100608.77;;;3.05;83.39
61478;BME280;47345;52.334;10.392;2023-03-15T07:00:51;100612.67;;;3.09;83.28
61478;BME280;47345;52.334;10.392;2023-03-15T07:03:21;100616.30;;;3.11;82.95
61478;BME280;47345;52.334;10.392;2023-03-15T07:05:52;100621.60;;;3.10;82.82
61478;BME280;47345;52.334;10.392;2023-03-15T07:08:23;100626.18;;;3.08;82.32
61478;BME280;47345;52.334;10.392;2023-03-15T07:10:54;100632.69;;;3.06;82.59
61478;BME280;47345;52.334;10.392;2023-03-15T07:13:25;100636.86;;;3.04;82.75
61478;BME280;47345;52.334;10.392;2023-03-15T07:15:56;100642.48;;;3.04;83.28
61478;BME280;47345;52.334;10.392;2023-03-15T07:18:27;100646.27;;;3.07;83.13
61478;BME280;47345;52.334;10.392;2023-03-15T07:20:59;100648.03;;;3.13;83.39
61478;BME280;47345;52.334;10.392;2023-03-15T07:23:30;100650.19;;;3.19;83.22
61478;BME280;47345;52.334;10.392;2023-03-15T07:26:00;100654.02;;;3.24;83.09
61478;BME280;47345;52.334;10.392;2023-03-15T07:28:31;100660.79;;;3.27;83.20
61478;BME280;47345;52.334;10.392;2023-03-15T07:31:03;100663.70;;;3.28;82.71
61478;BME280;47345;52.334;10.392;2023-03-15T07:33:34;100664.27;;;3.32;82.97
61478;BME280;47345;52.334;10.392;2023-03-15T07:36:07;100671.29;;;3.37;82.88
61478;BME280;47345;52.334;10.392;2023-03-15T07:38:37;100673.77;;;3.42;82.93
61478;BME280;47345;52.334;10.392;2023-03-15T07:41:11;100679.90;;;3.47;82.71
61478;BME280;47345;52.334;10.392;2023-03-15T07:43:41;100679.89;;;3.53;82.61
61478;BME280;47345;52.334;10.392;2023-03-15T07:46:12;100685.25;;;3.59;82.24
61478;BME280;47345;52.334;10.392;2023-03-15T07:48:42;100686.70;;;3.65;82.24
61478;BME280;47345;52.334;10.392;2023-03-15T07:51:13;100688.14;;;3.71;82.32
61478;BME280;47345;52.334;10.392;2023-03-15T07:53:43;100692.38;;;3.75;82.34
61478;BME280;47345;52.334;10.392;2023-03-15T07:56:13;100696.45;;;3.79;82.33
61478;BME280;47345;52.334;10.392;2023-03-15T07:58:44;100699.41;;;3.83;81.99
61478;BME280;47345;52.334;10.392;2023-03-15T08:01:15;100700.37;;;3.88;81.83
61478;BME280;47345;52.334;10.392;2023-03-15T08:03:46;100703.31;;;3.89;81.40
61478;BME280;47345;52.334;10.392;2023-03-15T08:06:16;100710.21;;;3.89;81.32
61478;BME280;47345;52.334;10.392;2023-03-15T08:08:46;100711.66;;;3.89;81.38
61478;BME280;47345;52.334;10.392;2023-03-15T08:11:17;100712.85;;;3.89;81.52
61478;BME280;47345;52.334;10.392;2023-03-15T08:13:47;100714.77;;;3.93;81.59
61478;BME280;47345;52.334;10.392;2023-03-15T08:16:17;100711.57;;;4.01;81.60
61478;BME280;47345;52.334;10.392;2023-03-15T08:18:48;100715.95;;;4.11;81.62
61478;BME280;47345;52.334;10.392;2023-03-15T08:21:19;100728.73;;;4.20;80.73
61478;BME280;47345;52.334;10.392;2023-03-15T08:23:50;100730.67;;;4.19;79.56
61478;BME280;47345;52.334;10.392;2023-03-15T08:26:20;100731.26;;;4.13;78.99
61478;BME280;47345;52.334;10.392;2023-03-15T08:28:51;100734.89;;;4.04;78.66
61478;BME280;47345;52.334;10.392;2023-03-15T08:31:21;100739.64;;;3.95;79.20
61478;BME280;47345;52.334;10.392;2023-03-15T08:33:51;100741.71;;;3.89;79.46
61478;BME280;47345;52.334;10.392;2023-03-15T08:36:22;100746.67;;;3.88;79.43
61478;BME280;47345;52.334;10.392;2023-03-15T08:38:52;100747.73;;;3.90;78.87
61478;BME280;47345;52.334;10.392;2023-03-15T08:41:23;100754.48;;;3.95;79.15
61478;BME280;47345;52.334;10.392;2023-03-15T08:43:53;100758.13;;;4.01;78.77
61478;BME280;47345;52.334;10.392;2023-03-15T08:46:24;100763.95;;;4.04;78.68
61478;BME280;47345;52.334;10.392;2023-03-15T08:48:54;100766.91;;;4.04;78.40
61478;BME280;47345;52.334;10.392;2023-03-15T08:51:24;100768.73;;;4.05;78.02
61478;BME280;47345;52.334;10.392;2023-03-15T08:53:56;100773.58;;;4.12;78.63
61478;BME280;47345;52.334;10.392;2023-03-15T08:56:26;100781.14;;;4.19;77.94
61478;BME280;47345;52.334;10.392;2023-03-15T08:58:56;100782.50;;;4.27;78.07
61478;BME280;47345;52.334;10.392;2023-03-15T09:01:27;100787.06;;;4.31;78.25
61478;BME280;47345;52.334;10.392;2023-03-15T09:03:59;100786.25;;;4.36;78.48
61478;BME280;47345;52.334;10.392;2023-03-15T09:06:29;100791.52;;;4.40;78.42
61478;BME280;47345;52.334;10.392;2023-03-15T09:08:59;100797.17;;;4.45;77.68
61478;BME280;47345;52.334;10.392;2023-03-15T09:11:30;100795.12;;;4.48;77.39
61478;BME280;47345;52.334;10.392;2023-03-15T09:14:00;100805.27;;;4.47;77.01
61478;BME280;47345;52.334;10.392;2023-03-15T09:16:31;100806.90;;;4.46;77.08
61478;BME280;47345;52.334;10.392;2023-03-15T09:19:01;100806.05;;;4.45;77.71
61478;BME280;47345;52.334;10.392;2023-03-15T09:21:32;100812.73;;;4.47;78.33
61478;BME280;47345;52.334;10.392;2023-03-15T09:24:02;100819.58;;;4.51;78.09
61478;BME280;47345;52.334;10.392;2023-03-15T09:26:33;100821.16;;;4.59;77.33
61478;BME280;47345;52.334;10.392;2023-03-15T09:29:03;100823.23;;;4.66;76.68
61478;BME280;47345;52.334;10.392;2023-03-15T09:31:34;100828.94;;;4.71;76.39
61478;BME280;47345;52.334;10.392;2023-03-15T09:34:04;100831.29;;;4.76;77.10
61478;BME280;47345;52.334;10.392;2023-03-15T09:36:35;100835.89;;;4.80;77.03
61478;BME280;47345;52.334;10.392;2023-03-15T09:39:06;100837.13;;;4.87;77.35
61478;BME280;47345;52.334;10.392;2023-03-15T09:41:43;100834.92;;;4.92;75.93
61478;BME280;47345;52.334;10.392;2023-03-15T09:44:15;100841.36;;;4.96;75.71
61478;BME280;47345;52.334;10.392;2023-03-15T09:46:59;100845.23;;;5.00;75.24
61478;BME280;47345;52.334;10.392;2023-03-15T09:49:40;100846.83;;;5.09;75.32
61478;BME280;47345;52.334;10.392;2023-03-15T09:52:23;100852.10;;;5.17;74.80
61478;BME280;47345;52.334;10.392;2023-03-15T09:54:58;100853.11;;;5.24;74.30
61478;BME280;47345;52.334;10.392;2023-03-15T09:57:36;100849.75;;;5.34;74.61
61478;BME280;47345;52.334;10.392;2023-03-15T10:00:16;100852.35;;;5.44;74.04
61478;BME280;47345;52.334;10.392;2023-03-15T10:02:56;100855.36;;;5.55;73.57
61478;BME280;47345;52.334;10.392;2023-03-15T10:05:36;100851.39;;;5.63;72.91
61478;BME280;47345;52.334;10.392;2023-03-15T10:08:13;100854.94;;;5.74;73.97
61478;BME280;47345;52.334;10.392;2023-03-15T10:10:50;100853.00;;;5.84;72.39
61478;BME280;47345;52.334;10.392;2023-03-15T10:13:30;100853.36;;;5.93;72.64
61478;BME280;47345;52.334;10.392;2023-03-15T10:16:12;100854.66;;;5.99;70.71
61478;BME280;47345;52.334;10.392;2023-03-15T10:21:39;100846.81;;;6.03;70.35
61478;BME280;47345;52.334;10.392;2023-03-15T10:24:19;100845.02;;;6.02;69.27
61478;BME280;47345;52.334;10.392;2023-03-15T10:26:51;100853.63;;;6.03;69.08
61478;BME280;47345;52.334;10.392;2023-03-15T10:29:25;100853.63;;;6.07;70.13
61478;BME280;47345;52.334;10.392;2023-03-15T10:31:56;100852.04;;;6.19;70.85
61478;BME280;47345;52.334;10.392;2023-03-15T10:34:27;100849.64;;;6.27;69.79
61478;BME280;47345;52.334;10.392;2023-03-15T10:36:58;100851.86;;;6.30;69.75
61478;BME280;47345;52.334;10.392;2023-03-15T10:39:29;100855.40;;;6.28;69.58
61478;BME280;47345;52.334;10.392;2023-03-15T10:41:59;100858.44;;;6.25;69.42
61478;BME280;47345;52.334;10.392;2023-03-15T10:44:37;100860.54;;;6.27;69.13
61478;BME280;47345;52.334;10.392;2023-03-15T10:47:12;100860.04;;;6.33;69.03
61478;BME280;47345;52.334;10.392;2023-03-15T10:49:56;100861.15;;;6.42;69.42
61478;BME280;47345;52.334;10.392;2023-03-15T10:52:33;100858.73;;;6.51;67.65
61478;BME280;47345;52.334;10.392;2023-03-15T10:55:10;100860.33;;;6.56;66.56
61478;BME280;47345;52.334;10.392;2023-03-15T10:57:49;100860.90;;;6.59;66.05
61478;BME280;47345;52.334;10.392;2023-03-15T11:00:27;100859.11;;;6.56;64.25
61478;BME280;47345;52.334;10.392;2023-03-15T11:03:04;100861.55;;;6.48;64.96
61478;BME280;47345;52.334;10.392;2023-03-15T11:05:41;100859.80;;;6.40;64.42
61478;BME280;47345;52.334;10.392;2023-03-15T11:08:16;100859.02;;;6.37;64.77
61478;BME280;47345;52.334;10.392;2023-03-15T11:10:56;100858.23;;;6.43;65.51
61478;BME280;47345;52.334;10.392;2023-03-15T11:13:28;100862.33;;;6.51;64.45
61478;BME280;47345;52.334;10.392;2023-03-15T11:16:05;100861.99;;;6.56;64.03
61478;BME280;47345;52.334;10.392;2023-03-15T11:18:45;100865.91;;;6.55;64.10
61478;BME280;47345;52.334;10.392;2023-03-15T11:21:16;100867.80;;;6.49;63.24
61478;BME280;47345;52.334;10.392;2023-03-15T11:23:49;100873.39;;;6.46;63.37
61478;BME280;47345;52.334;10.392;2023-03-15T11:26:22;100870.77;;;6.41;61.29
61478;BME280;47345;52.334;10.392;2023-03-15T11:29:04;100870.33;;;6.32;60.92
61478;BME280;47345;52.334;10.392;2023-03-15T11:31:37;100870.25;;;6.29;60.55
61478;BME280;47345;52.334;10.392;2023-03-15T11:34:10;100875.98;;;6.32;59.99
61478;BME280;47345;52.334;10.392;2023-03-15T11:36:45;100875.33;;;6.37;61.06
61478;BME280;47345;52.334;10.392;2023-03-15T11:39:35;100876.52;;;6.51;60.31
61478;BME280;47345;52.334;10.392;2023-03-15T11:42:12;100875.55;;;6.62;57.78
61478;BME280;47345;52.334;10.392;2023-03-15T11:44:45;100871.45;;;6.74;57.37
61478;BME280;47345;52.334;10.392;2023-03-15T11:47:22;100872.12;;;6.87;57.18
61478;BME280;47345;52.334;10.392;2023-03-15T11:49:56;100875.81;;;6.99;58.00
61478;BME280;47345;52.334;10.392;2023-03-15T11:52:28;100879.50;;;7.06;59.56
61478;BME280;47345;52.334;10.392;2023-03-15T11:55:00;100872.29;;;7.12;59.85
61478;BME280;47345;52.334;10.392;2023-03-15T11:57:42;100867.48;;;7.18;60.19
61478;BME280;47345;52.334;10.392;2023-03-15T12:03:35;100875.19;;;7.25;58.49
61478;BME280;47345;52.334;10.392;2023-03-15T12:08:55;100874.45;;;7.27;58.35
61478;BME280;47345;52.334;10.392;2023-03-15T12:11:40;100876.48;;;7.29;58.42
61478;BME280;47345;52.334;10.392;2023-03-15T12:14:27;100874.13;;;7.34;57.30
61478;BME280;47345;52.334;10.392;2023-03-15T12:17:37;100876.69;;;7.38;56.95
61478;BME280;47345;52.334;10.392;2023-03-15T12:20:29;100879.46;;;7.43;57.12
61478;BME280;47345;52.334;10.392;2023-03-15T12:23:18;100891.59;;;7.38;56.77
61478;BME280;47345;52.334;10.392;2023-03-15T12:25:53;100889.11;;;7.29;57.55
61478;BME280;47345;52.334;10.392;2023-03-15T12:28:28;100892.46;;;7.21;57.88
61478;BME280;47345;52.334;10.392;2023-03-15T12:31:01;100890.52;;;7.15;58.12
61478;BME280;47345;52.334;10.392;2023-03-15T12:33:43;100892.59;;;7.08;56.74
61478;BME280;47345;52.334;10.392;2023-03-15T12:36:25;100896.97;;;7.01;56.58
61478;BME280;47345;52.334;10.392;2023-03-15T12:39:19;100901.77;;;6.98;57.85
61478;BME280;47345;52.334;10.392;2023-03-15T12:41:51;100908.58;;;6.93;58.71
61478;BME280;47345;52.334;10.392;2023-03-15T12:44:35;100916.34;;;6.91;59.10
61478;BME280;47345;52.334;10.392;2023-03-15T12:47:08;100914.82;;;6.86;58.97
61478;BME280;47345;52.334;10.392;2023-03-15T12:49:41;100916.08;;;6.87;57.98
61478;BME280;47345;52.334;10.392;2023-03-15T12:52:32;100915.92;;;6.88;56.09
61478;BME280;47345;52.334;10.392;2023-03-15T12:55:12;100916.95;;;6.89;55.41
61478;BME280;47345;52.334;10.392;2023-03-15T12:57:48;100912.80;;;6.93;55.06
61478;BME280;47345;52.334;10.392;2023-03-15T13:00:22;100922.66;;;6.99;55.04
61478;BME280;47345;52.334;10.392;2023-03-15T13:03:03;100933.71;;;7.03;54.01
61478;BME280;47345;52.334;10.392;2023-03-15T13:05:39;100966.69;;;7.03;61.16
61478;BME280;47345;52.334;10.392;2023-03-15T13:08:32;100961.00;;;6.76;63.51
61478;BME280;47345;52.334;10.392;2023-03-15T13:11:15;100970.23;;;6.50;65.38
61478;BME280;47345;52.334;10.392;2023-03-15T13:14:02;100974.67;;;6.33;66.35
61478;BME280;47345;52.334;10.392;2023-03-15T13:16:37;100983.97;;;6.18;65.90
61478;BME280;47345;52.334;10.392;2023-03-15T13:19:20;100991.45;;;6.08;67.73
61478;BME280;47345;52.334;10.392;2023-03-15T13:21:59;100992.75;;;5.99;65.25
61478;BME280;47345;52.334;10.392;2023-03-15T13:24:39;100991.50;;;5.91;65.89
61478;BME280;47345;52.334;10.392;2023-03-15T13:27:23;100997.64;;;5.84;67.08
61478;BME280;47345;52.334;10.392;2023-03-15T13:29:57;101009.56;;;5.76;67.09